Аэропорт: Николаев. Николаев

ICAO: UKON

METAR:
2021-07-28 13:00:00
UKON 281300Z 20008MPS 160V230 CAVOK 31/15 Q1014 NOSIG
METAR:
2021-07-28 11:02:00
TAF UKON 281102Z 2812/2821 21007G15MPS 9999 SCT007 SCT030CB TX34/2813Z TN25/2821Z PROB40 TEMPO 2812/2821 1000 TSRA BKN003 BKN020CB